x

Manistee Harbor, Mi (meem4) Weather Station

8:40pm - Tue 21st Oct 2014 All times are CDT. -5 hours from GMT.

  • Wind
    5mph, 7mph gusts
  • Air Temp 41°f
  • Sea Pressure 1026.1mb
  • Manistee Harbor, Mi
  • Manistee Harbor, Mi

More Historic Weather Station data

Upgrade to MSW Pro to gain access to the past 30 days of data for over 8000 Wavebouys and Weather Stations around the globe.

Join Pro

Comparision Forecast

View Surf forecast
   
Tue 10/21 8:40pm 5 7 mph 1026.1mb 41f
8:30pm 5 7 mph 1025.7mb 41f
8:20pm 5 11 mph 1025.1mb 42f
8:10pm 8 11 mph 1024.7mb 42f
8:00pm 8 15 mph 1024.4mb 42f
7:40pm 11 16 mph 1024.7mb 43f
7:30pm 13 17 mph 1025.1mb 44f
7:20pm 15 18 mph 1024.7mb 45f
7:10pm 14 17 mph 1024.4mb 45f
7:00pm 14 22 mph 1024.7mb 45f
6:40pm 17 23 mph 1023.7mb 46f
6:30pm 18 22 mph 1024mb 46f
6:20pm 20 24 mph 1024.4mb 46f
6:10pm 21 24 mph 1024.4mb 46f
6:00pm 21 24 mph 1024mb 46f
5:40pm 21 24 mph 1024.4mb 46f
5:30pm 22 25 mph 1024mb 46f
5:20pm 22 26 mph 1023.4mb 46f
5:10pm 22 26 mph 1023.4mb 47f
5:00pm 25 29 mph 1023.7mb 46f
4:40pm 24 29 mph 1023mb 47f
4:30pm 26 30 mph 1023.4mb 46f
4:20pm 25 30 mph 1022.4mb 47f
4:10pm 22 28 mph 1023mb 47f
4:00pm 23 26 mph 1023mb 47f
3:40pm 24 28 mph 1023mb 47f
3:30pm 23 29 mph 1022.4mb 47f
3:20pm 23 29 mph 1022.4mb 47f
3:10pm 25 30 mph 1022.7mb 47f
3:00pm 23 29 mph 1022mb 47f
2:40pm 23 28 mph 1022mb 47f
2:30pm 24 29 mph 1022.7mb 47f
2:20pm 24 29 mph 1022.4mb 47f
2:10pm 25 30 mph 1022mb 47f
2:00pm 24 28 mph 1022.7mb 47f
1:40pm 23 26 mph 1023mb 47f
1:30pm 22 26 mph 1022mb 47f
1:20pm 23 26 mph 1022.7mb 47f
1:10pm 22 24 mph 1022.4mb 47f
1:00pm 21 25 mph 1022.4mb 47f
12:40pm 22 26 mph 1022mb 47f
12:30pm 22 25 mph 1023mb 47f
12:20pm 18 24 mph 1022mb 47f
12:10pm 22 25 mph 1022.4mb 47f
12:00pm 23 25 mph 1022.7mb 47f
11:40am 21 24 mph 1022.4mb 47f
11:30am 21 24 mph 1022.7mb 47f
11:20am 22 25 mph 1021.7mb 47f
11:10am 22 25 mph 1021.7mb 47f
11:00am 20 23 mph 1022.4mb 48f
10:40am 21 23 mph 1022mb 47f
10:30am 21 24 mph 1021.3mb 47f
10:20am 11 20 mph 1021.3mb 47f
10:10am 11 21 mph 1021.7mb 47f
10:00am 18 28 mph 1021.7mb 47f
9:40am 22 26 mph 1021.3mb 47f
9:30am 21 24 mph 1021mb 47f
9:20am 22 25 mph 1020.7mb 47f
9:10am 22 26 mph 1021mb 47f
9:00am 22 28 mph 1021.3mb 47f
8:40am 24 31 mph 1020.3mb 47f
8:30am 26 30 mph 1020mb 47f
8:20am 25 29 mph 1020mb 47f
8:10am 22 28 mph 1020.3mb 48f
8:00am 22 28 mph 1020.3mb 48f
7:40am 23 28 mph 1019.3mb 48f
7:30am 25 29 mph 1019mb 48f
7:20am 26 30 mph 1019.3mb 48f
7:10am 23 29 mph 1019.6mb 48f
7:00am 26 31 mph 1019.6mb 48f
6:40am 23 28 mph 1018.3mb 48f
6:30am 22 26 mph 1018.3mb 48f
6:20am 23 29 mph 1019mb 48f
6:10am 22 26 mph 1019mb 48f
6:00am 24 28 mph 1018.6mb 48f
5:40am 21 26 mph 1017.6mb 48f
5:30am 24 26 mph 1017.9mb 48f
5:20am 22 26 mph 1017.9mb 48f
5:10am 20 28 mph 1017.9mb 48f
5:00am 21 29 mph 1017.3mb 48f
4:40am 23 25 mph 1016.9mb 49f
4:30am 22 26 mph 1017.3mb 48f
4:20am 24 29 mph 1017.3mb 48f
4:10am 23 29 mph 1016.9mb 49f
4:00am 25 29 mph 1016.3mb 49f
3:40am 24 28 mph 1016.3mb 48f
3:30am 24 26 mph 1016.6mb 48f
3:20am 21 26 mph 1016.6mb 48f
3:10am 23 26 mph 1015.9mb 49f
3:00am 21 28 mph 1015.6mb 48f
2:40am 21 26 mph 1016.3mb 48f
2:30am 22 28 mph 1016.3mb 48f
2:20am 24 26 mph 1016.3mb 48f
2:10am 21 24 mph 1015.6mb 48f
2:00am 20 24 mph 1015.6mb 48f
1:40am 23 26 mph 1015.9mb 48f
1:30am 20 24 mph 1015.9mb 48f
1:20am 22 26 mph 1015.6mb 48f
1:10am 23 26 mph 1015.2mb 48f
1:00am 21 26 mph 1015.2mb 48f
12:40am 22 28 mph 1015.9mb 48f
12:30am 24 26 mph 1015.9mb 48f
12:20am 23 29 mph 1015.6mb 48f
12:10am 23 29 mph 1015.2mb 48f
12:00am 25 29 mph 1015.6mb 48f
Mon 10/20 11:40pm 25 30 mph 1015.9mb 48f
11:30pm 25 29 mph 1015.6mb 48f
11:20pm 25 30 mph 1015.2mb 48f
11:10pm 25 29 mph 1015.2mb 48f
11:00pm 25 31 mph 1015.6mb 48f
10:40pm 26 32 mph 1015.9mb 48f
10:30pm 26 31 mph 1015.6mb 48f
10:20pm 25 31 mph 1015.2mb 48f
10:10pm 28 30 mph 1015.6mb 48f
10:00pm 24 29 mph 1015.9mb 48f
9:40pm 24 30 mph 1015.2mb 48f
9:30pm 25 30 mph 1014.9mb 48f
9:20pm 24 29 mph 1015.2mb 48f
9:10pm 23 28 mph 1015.6mb 49f
9:00pm 24 30 mph 1015.6mb 49f
8:50pm 24 30 mph 1015.2mb 49f
8:40pm 24 31 mph 1014.6mb 49f
8:30pm 26 30 mph 1014.9mb 49f
8:20pm 25 31 mph 1015.2mb 49f
8:10pm 26 30 mph 1015.2mb 49f
8:00pm 26 30 mph 1014.2mb 49f
7:50pm 23 29 mph 1014.2mb 49f
7:40pm 25 29 mph 1014.6mb 49f
7:30pm 25 31 mph 1014.9mb 49f
7:20pm 25 30 mph 1014.6mb 49f
7:10pm 23 28 mph 1013.9mb 49f
7:00pm 23 29 mph 1014.2mb 50f
6:50pm 21 26 mph 1014.2mb 50f
6:40pm 23 26 mph 1014.2mb 50f
6:30pm 21 24 mph 1013.5mb 50f
6:20pm 22 24 mph 1013.2mb 50f
6:10pm 20 25 mph 1013.9mb 50f
6:00pm 23 26 mph 1013.5mb 50f
5:50pm 24 26 mph 1012.9mb 50f
5:40pm 21 24 mph 1012.5mb 50f
5:30pm 18 22 mph 1013.5mb 50f
5:20pm 18 22 mph 1013.5mb 50f
5:10pm 17 23 mph 1012.5mb 50f
5:00pm 18 23 mph 1012.2mb 50f
4:50pm 20 23 mph 1012.9mb 50f
4:40pm 20 24 mph 1012.9mb 50f
4:30pm 20 24 mph 1012.5mb 50f
4:20pm 22 25 mph 1011.9mb 50f
4:10pm 18 23 mph 1012.5mb 50f
4:00pm 21 25 mph 1012.5mb 50f
3:50pm 22 26 mph 1011.9mb 50f
3:40pm 23 24 mph 1011.9mb 50f
3:30pm 22 25 mph 1012.2mb 50f
3:20pm 21 25 mph 1011.9mb 50f
3:10pm 18 25 mph 1011.5mb 50f
3:00pm 22 26 mph 1011.9mb 50f
2:50pm 22 25 mph 1011.9mb 50f
2:40pm 21 24 mph 1011.2mb 50f
2:30pm 20 23 mph 1011.2mb 50f
2:20pm 22 24 mph 1011.5mb 50f
2:10pm 20 23 mph 1011.2mb 50f
2:00pm 18 24 mph 1010.5mb 50f
1:50pm 20 24 mph 1011.5mb 50f
1:40pm 21 24 mph 1011.2mb 50f
1:30pm 22 24 mph 1010.2mb 50f
1:20pm 21 23 mph 1011.2mb 50f
1:10pm 18 23 mph 1010.8mb 50f
1:00pm 18 22 mph 1010.5mb 50f
12:50pm 20 22 mph 1010.8mb 50f
12:40pm 18 23 mph 1010.5mb 50f
12:30pm 18 24 mph 1010.8mb 50f
12:20pm 17 22 mph 1010.8mb 50f
12:10pm 17 23 mph 1010.2mb 50f
12:00pm 20 22 mph 1010.8mb 51f
11:50am 17 23 mph 1010.5mb 50f
11:40am 17 23 mph 1010.5mb 50f
11:30am 20 23 mph 1010.8mb 50f
11:20am 20 23 mph 1010.5mb 51f
11:10am 20 22 mph 1010.2mb 51f
11:00am 17 22 mph 1010.8mb 51f
10:50am 17 23 mph 1010.5mb 51f
10:40am 18 23 mph 1009.8mb 51f
10:30am 17 22 mph 1010.5mb 51f
10:20am 15 17 mph 1010.8mb 51f
10:10am 13 16 mph 1010.2mb 51f
10:00am 14 17 mph 1009.5mb 51f
9:50am 14 16 mph 1010.2mb 51f
9:40am 13 14 mph 1010.5mb 51f
9:30am 10 15 mph 1009.5mb 51f
9:20am 11 14 mph 1009.5mb 51f
9:10am 10 14 mph 1010.2mb 51f
9:00am 11 14 mph 1009.8mb 51f
8:50am 9 10 mph 1009.1mb 51f
8:40am 8 9 mph 1008.8mb 51f
8:30am 7 8 mph 1009.5mb 51f
8:20am 8 9 mph 1009.5mb 51f
8:10am 8 9 mph 1009.1mb 51f
8:00am 8 10 mph 1008.8mb 51f
7:50am 7 8 mph 1009.1mb 51f
7:40am 7 8 mph 1009.5mb 51f
7:30am 7 8 mph 1009.1mb 51f
7:20am 7 9 mph 1008.5mb 51f
7:10am 7 8 mph 1008.1mb 51f
7:00am 7 8 mph 1008.8mb 51f
6:50am 5 6 mph 1009.1mb 50f
6:40am 3 6 mph 1008.5mb 50f
6:30am 6 7 mph 1007.8mb 50f
6:20am 5 8 mph 1008.1mb 49f
6:10am 7
mph
1008.5mb 49f
6:00am 7 8 mph 1008.5mb 50f
5:50am 8 9 mph 1007.8mb 50f
5:40am 8 9 mph 1007.8mb 51f
5:30am 9
mph
1008.5mb 51f
5:20am 8 10 mph 1008.8mb 50f
5:10am 9 10 mph 1008.1mb 51f
5:00am 7 9 mph 1007.8mb 50f
4:50am 6 9 mph 1008.1mb 50f
4:40am 8 9 mph 1008.5mb 51f
4:30am 5 10 mph 1008.1mb 50f
4:20am 8 11 mph 1007.8mb 51f
4:10am 10 13 mph 1008.1mb 52f
4:00am 7 10 mph 1008.5mb 51f
3:50am 7 11 mph 1008.1mb 52f
3:40am 9 13 mph 1007.8mb 52f
3:30am 10 15 mph 1008.1mb 51f
3:20am 14 16 mph 1008.5mb 51f
3:10am 14 17 mph 1008.5mb 52f
3:00am 16 20 mph 1007.8mb 51f
2:50am 16 18 mph 1008.5mb 52f
2:40am 16 21 mph 1009.1mb 51f
2:30am 17 21 mph 1008.8mb 51f
2:20am 17 21 mph 1008.1mb 52f
2:10am 21 24 mph 1008.8mb 52f
2:00am 23 26 mph 1009.1mb 53f
1:50am 20 24 mph 1008.8mb 52f
1:40am 20 25 mph 1008.5mb 52f
1:30am 18 25 mph 1009.1mb 52f
1:20am 21 29 mph 1009.1mb 53f
1:10am 18 24 mph 1008.8mb 52f
1:00am 17 24 mph 1008.8mb 52f
12:50am 21 28 mph 1009.5mb 52f
12:40am 20 26 mph 1009.5mb 52f
12:30am 18 22 mph 1009.1mb 52f
12:20am 16 23 mph 1009.1mb 52f
12:10am 18 22 mph 1009.8mb 52f
12:00am 18 23 mph 1010.2mb 52f
Sun 10/19 11:40pm 21 25 mph 1009.5mb 52f
11:30pm 22 29 mph 1010.2mb 52f
11:20pm 22 25 mph 1010.5mb 52f
11:10pm 21 25 mph 1010.2mb 51f
11:00pm 20 28 mph 1009.8mb 51f
10:50pm 23 26 mph 1010.5mb 51f
10:30pm 22 28 mph 1011.2mb 51f
10:20pm 22 30 mph 1010.8mb 51f
10:10pm 22 26 mph 1011.2mb 51f
10:00pm 22 28 mph 1011.9mb 51f
9:50pm 22 26 mph 1011.9mb 51f
9:40pm 23 30 mph 1011.5mb 51f
9:30pm 23 30 mph 1011.9mb 52f
9:20pm 23 30 mph 1012.2mb 52f
9:10pm 24 29 mph 1012.5mb 52f
9:00pm 22 28 mph 1011.9mb 52f
8:50pm 21 26 mph 1011.9mb 52f
8:40pm 20 26 mph 1012.5mb 52f
8:30pm 21 26 mph 1012.5mb 52f
8:20pm 18 23 mph 1012.2mb 51f
8:10pm 16 22 mph 1012.2mb 51f
8:00pm 18 23 mph 1012.5mb 51f
7:50pm 18 23 mph 1012.9mb 50f
7:40pm 13 18 mph 1013.2mb 49f
7:30pm 11 16 mph 1012.5mb 49f
7:20pm 10 20 mph 1012.5mb 49f
7:10pm 9 20 mph 1012.9mb 49f
7:00pm 16 24 mph 1012.9mb 49f
6:50pm 15 25 mph 1012.5mb 49f
6:40pm 15 21 mph 1012.5mb 49f
6:30pm 17 23 mph 1012.5mb 50f
6:20pm 16 24 mph 1012.9mb 50f
6:10pm 16 21 mph 1012.9mb 49f
6:00pm 17 24 mph 1012.5mb 50f
5:50pm 17 23 mph 1012.5mb 50f
5:40pm 20 25 mph 1013.5mb 50f
5:30pm 18 23 mph 1013.9mb 50f
5:20pm 17 24 mph 1013.9mb 50f
5:10pm 17 26 mph 1013.2mb 50f
5:00pm 20 26 mph 1013.9mb 50f
4:50pm 21 30 mph 1014.2mb 50f
4:40pm 20 29 mph 1013.9mb 50f
4:30pm 22 30 mph 1013.9mb 50f
4:20pm 24 30 mph 1014.9mb 51f
4:10pm 23 29 mph 1015.2mb 50f
4:00pm 18 26 mph 1014.6mb 50f
3:50pm 21 28 mph 1014.9mb 50f
3:40pm 23 25 mph 1015.6mb 50f
3:30pm 18 30 mph 1015.6mb 50f
3:20pm 21 29 mph 1015.2mb 50f
3:10pm 26 30 mph 1015.6mb 50f
3:00pm 21 25 mph 1016.6mb 50f
2:50pm 21 28 mph 1016.9mb 50f
2:40pm 23 28 mph 1016.3mb 50f
2:30pm 21 26 mph 1016.9mb 49f
2:20pm 22 25 mph 1017.3mb 49f
2:10pm 20 26 mph 1016.9mb 49f
2:00pm 25 28 mph 1016.9mb 49f
1:50pm 22 25 mph 1017.6mb 49f
1:40pm 21 25 mph 1017.9mb 49f
1:30pm 22 25 mph 1017.6mb 49f
1:20pm 22 26 mph 1018.3mb 49f
1:10pm 23 25 mph 1018.3mb 49f
1:00pm 22 25 mph 1017.6mb 49f
12:50pm 22 25 mph 1018.6mb 49f
12:40pm 21 25 mph 1018.6mb 49f
12:30pm 22 24 mph 1018.3mb 49f
12:20pm 21 23 mph 1019mb 49f
12:10pm 20 23 mph 1019.3mb 49f
12:00pm 20 23 mph 1019mb 49f
11:40am 20 23 mph 1020mb 49f
11:30am 20 25 mph 1019.6mb 48f
11:20am 20 23 mph 1019.3mb 48f
11:10am 16 21 mph 1020.3mb 48f
11:00am 15 20 mph 1020.3mb 47f
10:50am 16 18 mph 1020mb 47f
10:40am 14 18 mph 1020mb 47f
10:30am 13 18 mph 1020.3mb 46f
10:20am 11 16 mph 1020.7mb 45f
10:10am 13 16 mph 1020.7mb 44f
10:00am 11 15 mph 1020.3mb 44f
9:50am 13 17 mph 1020.3mb 43f
9:40am 9 13 mph 1020.3mb 42f
9:30am 10 17 mph 1020.3mb 41f
9:20am 11 16 mph 1020.3mb 40f
9:10am 10 15 mph 1020.3mb 40f
9:00am 10 16 mph 1020.7mb 40f
8:50am 10 14 mph 1020.7mb 39f
8:40am 10 14 mph 1021mb 38f
8:30am 11 16 mph 1021mb 38f
8:20am 10 16 mph 1021mb 37f
8:10am 11 15 mph 1021mb 37f
8:00am 11 16 mph 1021mb 36f
7:50am 10 15 mph 1021mb 36f
7:40am 11 15 mph 1021mb 35f
7:30am 9 14 mph 1021.3mb 35f
7:20am 10 14 mph 1021.3mb 35f
7:10am 9 13 mph 1021.7mb 34f
7:00am 8 11 mph 1021.7mb 34f
6:50am 9 11 mph 1022mb 34f
6:40am 9 13 mph 1022mb 34f
6:30am 9 13 mph 1022mb 35f
6:20am 9 14 mph 1022mb 35f
6:10am 10 13 mph 1021.7mb 35f
6:00am 9 11 mph 1021.7mb 35f
5:50am 9 11 mph 1021.7mb 35f
5:40am 9 11 mph 1021.7mb 35f
5:30am 8 11 mph 1021.7mb 35f
5:20am 8 10 mph 1021.7mb 35f
5:10am 8 11 mph 1021.7mb 35f
5:00am 8 11 mph 1021.3mb 35f
4:50am 9 11 mph 1021.3mb 35f
4:40am 8 10 mph 1021.3mb 35f
4:30am 8 10 mph 1021.3mb 35f
4:20am 6 8 mph 1021.3mb 35f
4:10am 6 7 mph 1021.3mb 36f
4:00am 5 7 mph 1021.7mb 36f
3:50am 5 7 mph 1021.7mb 35f
3:40am 5 8 mph 1021.7mb 36f
3:30am 6 7 mph 1021.7mb 36f
3:20am 3 7 mph 1022mb 36f
3:10am 3 5 mph 1022mb 36f
3:00am 3 6 mph 1022mb 36f
2:50am 3 5 mph 1022mb 35f
2:40am 3 5 mph 1022mb 36f
2:30am 5
mph
1022mb 36f
2:20am 3 5 mph 1022mb 36f
2:10am 3 5 mph 1022mb 36f
2:00am 2 5 mph 1022mb 36f
1:50am 2 3 mph 1021.7mb 36f
1:40am 2 5 mph 1021.7mb 36f
1:30am 2 3 mph 1021.7mb 35f
1:20am 3
mph
1021.3mb 36f
1:10am 2
mph
1021.3mb 35f
1:00am  -  1 mph 1021.7mb 36f
12:50am  -  1 mph 1021.7mb 37f
12:40am 1 2 mph 1021.7mb 37f
12:30am 2
mph
1021.7mb 37f
12:20am 2 3 mph 1021.7mb 37f
12:10am 2
mph
1021.7mb 37f
12:00am  -  2 mph 1022mb 37f
Sat 10/18 11:50pm 1 3 mph 1021.7mb 37f
11:40pm  -  3 mph 1022mb 36f
11:30pm 2 3 mph 1021.7mb 37f
11:20pm  -  5 mph 1021.7mb 37f
11:10pm 3 7 mph 1021.3mb 37f
11:00pm 5 7 mph 1021.7mb 38f
10:50pm 6 7 mph 1021.7mb 38f
10:40pm 5 8 mph 1021.7mb 38f
10:30pm 6 8 mph 1021.7mb 38f
10:20pm 5 8 mph 1021.7mb 38f
10:10pm 5 9 mph 1021.7mb 38f
10:00pm 6 10 mph 1021.7mb 39f
9:50pm 8 11 mph 1021.7mb 40f
9:40pm 9 13 mph 1022mb 40f
9:30pm 6 11 mph 1022mb 40f
9:20pm 6 11 mph 1022.4mb 40f
9:10pm 8 23 mph 1022.4mb 42f
9:00pm 17 24 mph 1022.4mb 43f
8:50pm 18 22 mph 1022.4mb 43f
8:40pm 17 24 mph 1022mb 43f
8:30pm 18 24 mph 1021.7mb 43f
8:20pm 20 24 mph 1021.7mb 43f
8:10pm 18 24 mph 1021.3mb 43f
8:00pm 21 25 mph 1021.3mb 44f
7:50pm 20 26 mph 1021.7mb 44f
7:40pm 22 26 mph 1021.7mb 44f
7:30pm 22 28 mph 1022mb 44f
7:20pm 21 29 mph 1022mb 44f
7:10pm 20 26 mph 1022mb 44f
7:00pm 23 28 mph 1021.7mb 44f
6:50pm 24 26 mph 1021.3mb 44f
6:40pm 21 24 mph 1021.3mb 44f
6:30pm 23 29 mph 1021mb 44f
6:20pm 24 29 mph 1021mb 44f
6:10pm 24 29 mph 1021.7mb 44f
6:00pm 24 29 mph 1021.3mb 44f
5:50pm 22 29 mph 1021.3mb 45f
5:40pm 23 30 mph 1021mb 45f
5:30pm 22 28 mph 1020.7mb 44f
5:20pm 24 31 mph 1020.3mb 44f
5:10pm 24 30 mph 1020mb 45f
5:00pm 20 31 mph 1020.7mb 45f
4:50pm 26 31 mph 1021mb 44f
4:40pm 24 31 mph 1020.7mb 45f
4:30pm 24 29 mph 1020.3mb 45f
4:20pm 24 30 mph 1020mb 45f
4:10pm 24 32 mph 1020mb 45f
4:00pm 24 29 mph 1020mb 45f
3:50pm 23 29 mph 1020.7mb 45f
3:40pm 23 29 mph 1020.3mb 45f
3:30pm 22 29 mph 1020mb 45f
3:20pm 22 30 mph 1019.6mb 45f
3:10pm 22 28 mph 1019.3mb 45f
3:00pm 23 29 mph 1019.6mb 44f
2:50pm 25 29 mph 1020mb 44f
2:40pm 23 29 mph 1020mb 44f
2:30pm 25 29 mph 1019.6mb 44f
2:20pm 28 32 mph 1019.3mb 44f
2:10pm 24 33 mph 1018.6mb 44f
2:00pm 23 32 mph 1019mb 45f
1:50pm 26 32 mph 1019.3mb 44f
1:40pm 26 33 mph 1019.3mb 44f
1:30pm 30 36 mph 1019.6mb 44f
1:20pm 29 36 mph 1019.3mb 44f
1:10pm 26 32 mph 1018.3mb 44f
1:00pm 29 33 mph 1018.3mb 44f
12:50pm 28 34 mph 1018.3mb 44f
12:40pm 28 33 mph 1019mb 44f
12:30pm 29 33 mph 1019mb 44f
12:20pm 25 32 mph 1019mb 44f
12:10pm 26 33 mph 1019.3mb 44f
12:00pm 25 33 mph 1018.6mb 44f
11:50am 29 36 mph 1018.3mb 43f
11:40am 29 33 mph 1017.9mb 44f
11:30am 28 34 mph 1017.9mb 44f
11:20am 30 36 mph 1018.3mb 44f
11:10am 29 37 mph 1018.6mb 44f
11:00am 29 34 mph 1018.6mb 44f
10:50am 29 36 mph 1018.3mb 44f
10:40am 31 36 mph 1017.6mb 44f
10:30am 30 38 mph 1017.3mb 44f
10:20am 31 36 mph 1016.9mb 44f
10:10am 33 37 mph 1016.9mb 45f
10:00am 30 38 mph 1017.3mb 45f
9:50am 31 38 mph 1016.9mb 44f
9:40am 32 39 mph 1016.9mb 45f
9:30am 31 37 mph 1016.6mb 45f
9:20am 30 37 mph 1016.6mb 45f
9:10am 29 38 mph 1015.6mb 46f
9:00am 31 37 mph 1015.6mb 45f
8:50am 31 37 mph 1015.9mb 45f
8:40am 33 41 mph 1015.9mb 45f
8:30am 31 38 mph 1015.9mb 46f
8:20am 30 38 mph 1015.6mb 46f
8:10am 33 38 mph 1015.2mb 46f
8:00am 30 40 mph 1014.6mb 46f
7:50am 32 40 mph 1013.9mb 46f
7:40am 31 39 mph 1014.2mb 46f
7:30am 33 39 mph 1014.6mb 46f
7:20am 32 41 mph 1014.6mb 46f
7:10am 32 41 mph 1014.6mb 46f
7:00am 30 41 mph 1013.9mb 46f
6:50am 29 41 mph 1013.2mb 46f
6:40am 29 38 mph 1013.2mb 46f
6:30am 31 38 mph 1013.5mb 46f
6:20am 32 39 mph 1013.5mb 46f
6:10am 33 39 mph 1013.5mb 46f
6:00am 33 40 mph 1013.2mb 47f
5:50am 34 39 mph 1012.5mb 46f
5:40am 32 41 mph 1012.2mb 47f
5:30am 33 39 mph 1012.5mb 47f
5:20am 32 41 mph 1012.9mb 47f
5:10am 32 41 mph 1012.9mb 47f
5:00am 33 40 mph 1012.5mb 47f
4:50am 36 40 mph 1011.9mb 47f
4:40am 30 44 mph 1011.5mb 47f
4:30am 36 40 mph 1011.5mb 47f
4:20am 37 43 mph 1011.5mb 47f
4:10am 36 43 mph 1012.2mb 47f
4:00am 37 44 mph 1011.9mb 47f
3:50am 34 43 mph 1011.2mb 47f
3:40am 33 44 mph 1011.2mb 48f
3:30am 34 44 mph 1010.5mb 47f
3:20am 36 46 mph 1011.2mb 47f
3:10am 36 43 mph 1011.2mb 47f
3:00am 36 43 mph 1010.8mb 47f
2:50am 38 44 mph 1010.5mb 47f
2:40am 36 51 mph 1010.2mb 47f
2:30am 33 43 mph 1010.2mb 48f